Time;durP1;ratioP1;P1;durP2;ratioP2;P2;SDS_P1;SDS_P2;PMS_P1;PMS_P2;Temp;Humidity;BMP_temperature;BMP_pressure;BME280_temperature;BME280_humidity;BME280_pressure;Samples;Min_cycle;Max_cycle;Signal;HPM_P1;HPM_P2
2024/01/19 00:00:14;;;;;;;31.00;14.20;;;-4.30;99.90;;;;;;5005369;28;20026;-63
2024/01/19 00:02:40;;;;;;;29.33;13.73;;;-4.40;99.90;;;;;;5004946;28;20398;-64
2024/01/19 00:05:06;;;;;;;31.02;14.88;;;-4.40;99.90;;;;;;5008193;28;20033;-63
2024/01/19 00:07:32;;;;;;;33.30;14.77;;;-4.30;99.90;;;;;;5004989;28;20026;-64
2024/01/19 00:09:58;;;;;;;34.90;15.00;;;-4.40;99.90;;;;;;5004635;28;20034;-63
2024/01/19 00:12:23;;;;;;;31.17;14.82;;;-4.50;99.90;;;;;;5002877;28;20061;-62
2024/01/19 00:14:49;;;;;;;36.92;15.00;;;-4.50;99.90;;;;;;5006680;28;20087;-63
2024/01/19 00:17:14;;;;;;;28.40;12.52;;;-4.50;99.90;;;;;;5005078;28;20125;-63
2024/01/19 00:19:40;;;;;;;26.67;14.05;;;-4.60;99.90;;;;;;5008629;28;20022;-62
2024/01/19 00:22:05;;;;;;;31.73;15.48;;;-4.60;99.90;;;;;;5001044;28;20102;-62
2024/01/19 00:24:31;;;;;;;31.80;14.10;;;-4.50;99.90;;;;;;5007340;28;20026;-63
2024/01/19 00:26:57;;;;;;;35.20;14.98;;;-4.50;99.90;;;;;;5007251;28;20030;-63
2024/01/19 00:29:23;;;;;;;29.95;14.55;;;-4.50;99.90;;;;;;4999903;28;20421;-63
2024/01/19 00:31:49;;;;;;;29.27;13.80;;;-4.50;99.90;;;;;;5007295;28;20101;-63
2024/01/19 00:34:16;;;;;;;31.85;13.93;;;-4.50;99.90;;;;;;5003809;28;20493;-63
2024/01/19 00:36:42;;;;;;;34.80;14.05;;;-4.40;99.90;;;;;;5005834;28;20029;-63
2024/01/19 00:39:08;;;;;;;30.85;13.95;;;-4.30;99.90;;;;;;4999386;28;20034;-63
2024/01/19 00:41:33;;;;;;;29.25;14.48;;;-4.20;99.90;;;;;;5007278;28;20473;-62
2024/01/19 00:43:59;;;;;;;29.42;14.30;;;-4.20;99.90;;;;;;5003472;28;20022;-63
2024/01/19 00:46:25;;;;;;;35.28;15.55;;;-4.10;99.90;;;;;;5000629;28;20026;-63
2024/01/19 00:48:51;;;;;;;32.40;15.15;;;-3.90;99.90;;;;;;5005153;28;20061;-63
2024/01/19 00:51:17;;;;;;;36.42;15.65;;;-3.90;99.90;;;;;;5002752;28;20021;-63
2024/01/19 00:53:44;;;;;;;34.15;14.43;;;-4.00;99.90;;;;;;5003990;28;20025;-62
2024/01/19 00:56:09;;;;;;;31.83;14.60;;;-4.10;99.90;;;;;;5004260;28;20053;-62
2024/01/19 00:58:40;;;;;;;34.65;14.50;;;-4.20;99.90;;;;;;5002346;28;20045;-63
2024/01/19 01:01:06;;;;;;;30.83;14.10;;;-4.10;99.90;;;;;;5004740;28;20030;-62
2024/01/19 01:03:31;;;;;;;31.92;13.20;;;-4.10;99.90;;;;;;5001912;28;20386;-63
2024/01/19 01:05:59;;;;;;;32.35;13.02;;;-4.10;99.90;;;;;;5003463;28;20713;-63
2024/01/19 01:08:26;;;;;;;33.45;13.73;;;-4.00;99.90;;;;;;5009186;28;20021;-64
2024/01/19 01:10:52;;;;;;;35.42;13.38;;;-4.00;99.90;;;;;;5005722;28;20037;-62
2024/01/19 01:13:18;;;;;;;28.50;12.05;;;-4.00;99.90;;;;;;5008462;28;20034;-63
2024/01/19 01:15:44;;;;;;;22.17;8.63;;;-3.90;99.90;;;;;;5006428;28;20384;-62
2024/01/19 01:18:10;;;;;;;34.60;12.57;;;-3.90;99.90;;;;;;5003485;28;20133;-62
2024/01/19 01:20:36;;;;;;;42.22;13.30;;;-3.50;99.90;;;;;;5004490;28;20018;-63
2024/01/19 01:23:01;;;;;;;29.55;9.52;;;-3.40;99.90;;;;;;5002163;28;20481;-63
2024/01/19 01:25:27;;;;;;;25.70;10.00;;;-3.40;99.90;;;;;;5009963;28;20648;-63
2024/01/19 01:27:53;;;;;;;24.63;11.38;;;-3.40;99.90;;;;;;5008769;28;20057;-63
2024/01/19 01:30:18;;;;;;;35.33;12.80;;;-3.40;99.90;;;;;;5008893;28;20053;-63
2024/01/19 01:32:44;;;;;;;31.67;13.55;;;-3.30;99.90;;;;;;5008381;28;20022;-63
2024/01/19 01:35:09;;;;;;;33.30;12.00;;;-3.30;99.90;;;;;;5009070;28;20033;-63
2024/01/19 01:37:35;;;;;;;30.40;12.23;;;-3.30;99.90;;;;;;5010129;28;20469;-63
2024/01/19 01:40:01;;;;;;;30.98;11.43;;;-3.30;99.90;;;;;;5005819;28;20029;-63
2024/01/19 01:42:26;;;;;;;31.52;11.32;;;-3.20;99.90;;;;;;5009917;28;20164;-63
2024/01/19 01:44:52;;;;;;;32.08;11.25;;;-3.10;99.90;;;;;;5010281;28;20049;-63
2024/01/19 01:47:17;;;;;;;31.58;10.82;;;-3.10;99.90;;;;;;5008818;28;20616;-63
2024/01/19 01:49:43;;;;;;;25.40;10.07;;;-3.10;99.90;;;;;;5010078;28;20022;-62
2024/01/19 01:52:10;;;;;;;25.88;9.98;;;-3.00;99.90;;;;;;5006018;28;20100;-62
2024/01/19 01:54:35;;;;;;;22.90;8.93;;;-3.00;99.90;;;;;;5006280;28;20025;-63
2024/01/19 01:57:02;;;;;;;27.52;10.40;;;-2.90;99.90;;;;;;5006824;28;20030;-63
2024/01/19 01:59:29;;;;;;;32.88;10.23;;;-2.90;99.90;;;;;;5008561;28;20428;-63
2024/01/19 02:01:54;;;;;;;26.35;9.65;;;-2.90;99.90;;;;;;5009575;28;20080;-63
2024/01/19 02:04:21;;;;;;;27.00;10.27;;;-2.90;99.90;;;;;;5008266;28;20518;-63
2024/01/19 02:06:47;;;;;;;28.17;10.98;;;-2.90;99.90;;;;;;5004803;28;20062;-63
2024/01/19 02:09:13;;;;;;;27.83;10.82;;;-3.00;99.90;;;;;;5005227;28;20061;-63
2024/01/19 02:11:39;;;;;;;28.17;11.15;;;-3.00;99.90;;;;;;5007638;28;20032;-63
2024/01/19 02:14:06;;;;;;;35.08;13.25;;;-3.00;99.90;;;;;;4998400;28;20517;-62
2024/01/19 02:16:32;;;;;;;34.55;12.02;;;-3.00;99.90;;;;;;4998970;28;20037;-63
2024/01/19 02:18:58;;;;;;;19.05;8.43;;;-2.90;99.90;;;;;;5007764;28;20398;-62
2024/01/19 02:21:24;;;;;;;34.17;12.88;;;-2.80;99.90;;;;;;5009442;28;20022;-62
2024/01/19 02:24:01;;;;;;;29.70;11.63;;;-2.70;99.90;;;;;;5013010;28;20081;-62
2024/01/19 02:26:32;;;;;;;26.40;9.25;;;-2.70;99.90;;;;;;5007652;28;20108;-62
2024/01/19 02:28:58;;;;;;;34.78;11.63;;;-2.70;99.90;;;;;;5011142;28;20042;-63
2024/01/19 02:31:24;;;;;;;28.77;9.23;;;-2.70;99.90;;;;;;5013648;28;20029;-62
2024/01/19 02:33:49;;;;;;;30.25;10.60;;;-2.70;99.90;;;;;;5011564;28;20026;-62
2024/01/19 02:36:15;;;;;;;30.30;11.02;;;-2.70;99.90;;;;;;5013527;28;20026;-62
2024/01/19 02:38:41;;;;;;;33.47;11.38;;;-2.70;99.90;;;;;;5011925;28;20109;-63
2024/01/19 02:41:06;;;;;;;24.80;9.52;;;-2.60;99.90;;;;;;5013413;28;20028;-62
2024/01/19 02:43:32;;;;;;;17.40;6.32;;;-2.50;99.90;;;;;;5013249;28;20034;-62
2024/01/19 02:45:57;;;;;;;27.10;10.85;;;-2.40;99.90;;;;;;5013601;28;20105;-63
2024/01/19 02:48:23;;;;;;;26.65;11.30;;;-2.30;99.90;;;;;;5013045;28;20121;-62
2024/01/19 02:50:49;;;;;;;16.58;7.88;;;-2.30;99.90;;;;;;5009367;28;20022;-62
2024/01/19 02:53:14;;;;;;;29.55;11.18;;;-2.20;99.90;;;;;;5009915;28;20026;-62
2024/01/19 02:55:40;;;;;;;28.85;10.65;;;-2.10;99.90;;;;;;5008511;28;20100;-62
2024/01/19 02:58:06;;;;;;;22.30;9.30;;;-2.10;99.90;;;;;;5004385;28;20088;-62
2024/01/19 03:00:31;;;;;;;25.45;9.75;;;-2.00;99.90;;;;;;5013075;28;20085;-62
2024/01/19 03:02:57;;;;;;;22.15;8.90;;;-1.90;99.90;;;;;;5011321;28;20081;-63
2024/01/19 03:05:23;;;;;;;28.85;10.70;;;-1.90;99.90;;;;;;5013578;28;20025;-62
2024/01/19 03:07:48;;;;;;;24.80;11.50;;;-1.90;99.90;;;;;;5012809;28;20022;-62
2024/01/19 03:10:14;;;;;;;23.90;9.15;;;-1.90;99.90;;;;;;5007890;28;20030;-63
2024/01/19 03:12:40;;;;;;;26.90;11.63;;;-2.00;99.90;;;;;;5012753;28;20022;-63
2024/01/19 03:15:06;;;;;;;31.73;11.20;;;-2.00;99.90;;;;;;5012625;28;20034;-62
2024/01/19 03:17:33;;;;;;;28.67;12.30;;;-2.00;99.90;;;;;;5012485;28;20054;-62
2024/01/19 03:19:59;;;;;;;31.15;12.52;;;-2.10;99.90;;;;;;5012707;28;20122;-61
2024/01/19 03:22:25;;;;;;;26.10;11.13;;;-2.20;99.90;;;;;;5012758;28;20037;-61
2024/01/19 03:24:50;;;;;;;28.60;13.27;;;-2.30;99.90;;;;;;5012609;28;20378;-61
2024/01/19 03:27:16;;;;;;;28.80;11.30;;;-2.30;99.90;;;;;;5012811;28;20018;-61
2024/01/19 03:29:42;;;;;;;32.05;11.88;;;-2.30;99.90;;;;;;5027735;28;20026;-61
2024/01/19 03:32:07;;;;;;;21.75;10.27;;;-2.40;99.90;;;;;;5012489;28;20049;-61
2024/01/19 03:34:33;;;;;;;22.58;9.48;;;-2.30;99.90;;;;;;5004533;28;20473;-61
2024/01/19 03:37:03;;;;;;;27.63;12.10;;;-2.30;99.90;;;;;;5003611;28;20033;-61
2024/01/19 03:39:30;;;;;;;32.30;13.60;;;-2.30;99.90;;;;;;5011838;28;20164;-61
2024/01/19 03:41:55;;;;;;;28.80;12.25;;;-2.30;99.90;;;;;;5012333;28;20529;-61
2024/01/19 03:44:23;;;;;;;30.73;13.55;;;-2.30;99.90;;;;;;5012219;28;20061;-62
2024/01/19 03:46:49;;;;;;;29.10;12.25;;;-2.20;99.90;;;;;;5012394;28;20600;-61
2024/01/19 03:49:15;;;;;;;30.45;10.68;;;-2.10;99.90;;;;;;5012133;28;20401;-61
2024/01/19 03:51:57;;;;;;;27.42;11.85;;;-2.10;99.90;;;;;;5011593;28;20030;-62
2024/01/19 03:54:23;;;;;;;31.60;13.73;;;-2.10;99.90;;;;;;5007979;28;20026;-62
2024/01/19 03:56:48;;;;;;;34.80;14.93;;;-2.10;99.90;;;;;;5008920;28;20493;-61
2024/01/19 03:59:14;;;;;;;35.92;14.63;;;-2.10;99.90;;;;;;5008747;28;20041;-62
2024/01/19 04:01:39;;;;;;;40.60;16.90;;;-2.20;99.90;;;;;;5010666;28;20026;-62
2024/01/19 04:04:05;;;;;;;39.90;16.35;;;-2.20;99.90;;;;;;5010360;28;20026;-62
2024/01/19 04:06:30;;;;;;;29.77;11.38;;;-2.30;99.90;;;;;;5012194;28;20029;-62
2024/01/19 04:08:56;;;;;;;51.85;17.83;;;-2.40;99.90;;;;;;5007773;28;20109;-61
2024/01/19 04:11:22;;;;;;;41.30;16.45;;;-2.40;99.90;;;;;;5012177;28;20022;-62
2024/01/19 04:13:47;;;;;;;34.63;13.95;;;-2.40;99.90;;;;;;5011870;28;20084;-62
2024/01/19 04:16:13;;;;;;;37.60;14.70;;;-2.60;99.90;;;;;;5008632;28;20042;-62
2024/01/19 04:18:38;;;;;;;46.42;17.92;;;-2.60;99.90;;;;;;5011417;28;20092;-62
2024/01/19 04:21:04;;;;;;;30.83;13.18;;;-2.50;99.90;;;;;;5011549;28;20026;-62
2024/01/19 04:23:30;;;;;;;39.35;14.18;;;-2.60;99.90;;;;;;5010687;28;20394;-62
2024/01/19 04:25:55;;;;;;;24.50;8.40;;;-2.60;99.90;;;;;;5010284;28;20022;-62
2024/01/19 04:28:21;;;;;;;45.60;15.63;;;-2.60;99.90;;;;;;5011893;28;20530;-62
2024/01/19 04:30:46;;;;;;;54.35;16.63;;;-2.60;99.90;;;;;;5011711;28;20029;-62
2024/01/19 04:33:12;;;;;;;43.08;16.73;;;-2.50;99.90;;;;;;5009686;28;20033;-62
2024/01/19 04:35:38;;;;;;;40.83;14.43;;;-2.50;99.90;;;;;;5010232;28;20111;-62
2024/01/19 04:38:03;;;;;;;46.63;17.35;;;-2.40;99.90;;;;;;5011432;28;20036;-62
2024/01/19 04:40:29;;;;;;;36.45;12.65;;;-2.30;99.90;;;;;;5006164;28;20480;-62
2024/01/19 04:42:55;;;;;;;48.65;16.77;;;-2.30;99.90;;;;;;5011364;28;20033;-62
2024/01/19 04:45:20;;;;;;;35.05;12.90;;;-2.30;99.90;;;;;;5011448;28;20033;-62
2024/01/19 04:47:46;;;;;;;52.20;15.88;;;-2.30;99.90;;;;;;5011148;28;20037;-62
2024/01/19 04:50:11;;;;;;;52.08;17.52;;;-2.30;99.90;;;;;;5011034;28;20026;-63
2024/01/19 04:52:37;;;;;;;35.45;14.57;;;-2.20;99.90;;;;;;5011071;28;20034;-63
2024/01/19 04:55:03;;;;;;;36.22;13.23;;;-2.20;99.90;;;;;;5001436;28;20108;-62
2024/01/19 04:57:28;;;;;;;48.05;17.40;;;-2.10;99.90;;;;;;5006980;28;20019;-63
2024/01/19 04:59:54;;;;;;;36.53;13.30;;;-2.10;99.90;;;;;;5009336;28;20033;-62
2024/01/19 05:02:19;;;;;;;23.45;9.00;;;-2.00;99.90;;;;;;5011194;28;20080;-62
2024/01/19 05:04:45;;;;;;;42.78;15.02;;;-2.00;99.90;;;;;;5002914;28;20037;-62
2024/01/19 05:07:11;;;;;;;48.13;18.80;;;-2.00;99.90;;;;;;5010003;28;20096;-61
2024/01/19 05:09:36;;;;;;;46.15;15.63;;;-2.00;99.90;;;;;;5006903;28;20421;-62
2024/01/19 05:12:02;;;;;;;36.58;12.07;;;-1.90;99.90;;;;;;5011297;28;20091;-62
2024/01/19 05:14:28;;;;;;;40.03;13.88;;;-1.90;99.90;;;;;;5009403;28;20034;-62
2024/01/19 05:16:54;;;;;;;33.00;11.05;;;-1.90;99.90;;;;;;5010754;28;20100;-62
2024/01/19 05:19:19;;;;;;;33.28;11.63;;;-1.90;99.90;;;;;;5010793;28;20080;-62
2024/01/19 05:21:45;;;;;;;36.22;11.23;;;-1.90;99.90;;;;;;5009487;28;20508;-61
2024/01/19 05:24:10;;;;;;;19.45;7.97;;;-1.80;99.90;;;;;;5010834;28;20026;-62
2024/01/19 05:26:36;;;;;;;40.22;13.15;;;-1.80;99.90;;;;;;5010685;28;20077;-62
2024/01/19 05:29:02;;;;;;;28.83;11.60;;;-1.80;99.90;;;;;;5002560;28;20025;-62
2024/01/19 05:31:27;;;;;;;40.17;11.82;;;-1.80;99.90;;;;;;5010543;28;20040;-62
2024/01/19 05:33:53;;;;;;;35.08;12.07;;;-1.70;99.90;;;;;;5009142;28;20385;-61
2024/01/19 05:36:20;;;;;;;31.48;9.80;;;-1.70;99.90;;;;;;5010465;28;20029;-61
2024/01/19 05:38:45;;;;;;;36.15;12.93;;;-1.70;99.90;;;;;;5007384;28;20014;-62
2024/01/19 05:41:11;;;;;;;25.70;6.97;;;-1.60;99.90;;;;;;5010428;28;20026;-61
2024/01/19 05:43:37;;;;;;;40.88;12.70;;;-1.60;99.90;;;;;;5009239;28;20025;-62
2024/01/19 05:46:02;;;;;;;29.20;10.23;;;-1.60;99.90;;;;;;5010524;28;20036;-62
2024/01/19 05:48:28;;;;;;;29.92;10.90;;;-1.50;99.90;;;;;;5010567;28;20477;-61
2024/01/19 05:50:54;;;;;;;32.92;11.25;;;-1.50;99.90;;;;;;5006237;28;20375;-61
2024/01/19 05:53:19;;;;;;;24.58;9.73;;;-1.50;99.90;;;;;;5006151;28;20492;-62
2024/01/19 05:55:45;;;;;;;35.90;13.82;;;-1.40;99.90;;;;;;5006631;28;20533;-64
2024/01/19 05:58:11;;;;;;;32.50;11.20;;;-1.00;99.90;;;;;;5005904;28;20049;-62
2024/01/19 06:00:36;;;;;;;38.25;11.75;;;-1.50;99.90;;;;;;5005672;28;20385;-62
2024/01/19 06:03:02;;;;;;;43.05;15.55;;;-1.50;99.90;;;;;;5001641;28;20030;-61
2024/01/19 06:05:28;;;;;;;38.28;14.82;;;-1.50;99.90;;;;;;4992894;28;20053;-62
2024/01/19 06:07:53;;;;;;;31.25;11.10;;;-1.50;99.90;;;;;;4994288;28;20396;-62
2024/01/19 06:10:19;;;;;;;27.77;10.45;;;-1.40;99.90;;;;;;5003297;28;20490;-62
2024/01/19 06:12:44;;;;;;;40.42;12.98;;;-1.40;99.90;;;;;;4995182;28;20026;-62
2024/01/19 06:15:10;;;;;;;33.60;9.98;;;-1.40;99.90;;;;;;5002273;28;20125;-62
2024/01/19 06:17:36;;;;;;;33.88;10.18;;;-1.40;99.90;;;;;;5009371;28;20054;-63
2024/01/19 06:20:02;;;;;;;21.30;6.85;;;-1.40;99.90;;;;;;5009888;28;20486;-62
2024/01/19 06:25:40;;;;;;;40.30;13.15;;;-1.40;99.90;;;;;;1347692;26;20062;-62
2024/01/19 06:28:06;;;;;;;27.30;11.07;;;-1.30;99.90;;;;;;4986976;28;20050;-62
2024/01/19 06:30:32;;;;;;;41.05;14.60;;;-1.40;99.90;;;;;;4981051;28;20030;-62
2024/01/19 06:32:58;;;;;;;42.63;14.73;;;-1.40;99.90;;;;;;4981044;28;20018;-62
2024/01/19 06:35:24;;;;;;;36.55;13.50;;;-1.50;99.90;;;;;;4977164;28;20041;-62
2024/01/19 06:37:50;;;;;;;37.92;13.27;;;-1.50;99.90;;;;;;4978992;28;20117;-62
2024/01/19 06:40:15;;;;;;;43.90;14.50;;;-1.50;99.90;;;;;;4978697;28;20026;-63
2024/01/19 06:42:44;;;;;;;31.30;10.02;;;-1.50;99.90;;;;;;4988800;28;20497;-62
2024/01/19 06:45:10;;;;;;;38.63;13.20;;;-1.50;99.90;;;;;;4980338;28;20046;-63
2024/01/19 06:47:36;;;;;;;29.50;10.60;;;-1.50;99.90;;;;;;4990081;28;20109;-62
2024/01/19 06:50:03;;;;;;;18.77;7.75;;;-1.60;99.90;;;;;;4987938;28;20162;-62
2024/01/19 06:52:29;;;;;;;25.13;9.95;;;-1.60;99.90;;;;;;4986769;28;20026;-62
2024/01/19 06:54:54;;;;;;;27.13;9.30;;;-1.60;99.90;;;;;;4995598;28;20026;-62
2024/01/19 06:57:20;;;;;;;22.98;7.80;;;-1.50;99.90;;;;;;4991395;28;20447;-62
2024/01/19 06:59:46;;;;;;;37.92;12.45;;;-1.40;99.90;;;;;;4994833;28;20022;-62
2024/01/19 07:02:12;;;;;;;30.42;12.63;;;-1.40;99.90;;;;;;4997517;28;20026;-62
2024/01/19 07:04:37;;;;;;;39.40;13.05;;;-1.40;99.90;;;;;;5000302;28;20030;-62
2024/01/19 07:07:03;;;;;;;25.95;9.68;;;-1.50;99.90;;;;;;4996866;28;20025;-62
2024/01/19 07:09:29;;;;;;;32.38;11.48;;;-1.50;99.90;;;;;;5003025;28;20474;-62
2024/01/19 07:11:55;;;;;;;18.42;8.60;;;-1.50;99.90;;;;;;4990080;28;20728;-62
2024/01/19 07:14:21;;;;;;;46.45;14.95;;;-1.50;99.90;;;;;;4996775;28;20033;-62
2024/01/19 07:16:46;;;;;;;42.33;12.88;;;-1.40;99.90;;;;;;4983280;28;20031;-62
2024/01/19 07:19:12;;;;;;;22.13;9.13;;;-1.50;99.90;;;;;;4986346;28;20033;-63
2024/01/19 07:21:41;;;;;;;17.15;6.57;;;-1.40;99.90;;;;;;4978256;28;20023;-62
2024/01/19 07:24:08;;;;;;;47.95;15.75;;;-1.40;99.90;;;;;;4972620;28;20025;-62
2024/01/19 07:26:34;;;;;;;48.38;16.67;;;-1.40;99.90;;;;;;4969090;28;20047;-62
2024/01/19 07:29:04;;;;;;;36.42;12.45;;;-1.30;99.90;;;;;;4974914;28;20037;-61
2024/01/19 07:31:30;;;;;;;36.40;12.33;;;-1.30;99.90;;;;;;4972382;28;20423;-62
2024/01/19 07:33:56;;;;;;;36.33;12.48;;;-1.40;99.90;;;;;;4965319;28;20035;-61
2024/01/19 07:36:22;;;;;;;37.10;13.60;;;-1.30;99.90;;;;;;4969033;28;20023;-62
2024/01/19 07:38:47;;;;;;;29.52;9.52;;;-1.30;99.90;;;;;;4966495;28;20050;-62
2024/01/19 07:41:13;;;;;;;52.80;15.48;;;-1.40;99.90;;;;;;4972030;28;20030;-62
2024/01/19 07:43:39;;;;;;;29.77;12.00;;;-1.40;99.90;;;;;;4956875;28;20085;-62
2024/01/19 07:46:04;;;;;;;45.58;14.25;;;-1.30;99.90;;;;;;4962804;28;20030;-62
2024/01/19 07:48:30;;;;;;;30.40;11.43;;;-1.30;99.90;;;;;;4963992;28;20073;-62
2024/01/19 07:50:55;;;;;;;65.20;18.23;;;-1.30;99.90;;;;;;4967292;28;20024;-62
2024/01/19 07:53:21;;;;;;;56.85;17.13;;;-1.30;99.90;;;;;;4966963;28;20487;-62
2024/01/19 07:55:47;;;;;;;32.42;11.25;;;-1.20;99.90;;;;;;4969507;28;20024;-62
2024/01/19 07:58:12;;;;;;;28.13;11.77;;;-1.20;99.90;;;;;;4967411;28;20031;-62
2024/01/19 08:00:38;;;;;;;39.08;14.57;;;-1.20;99.90;;;;;;4970725;28;20034;-62
2024/01/19 08:03:04;;;;;;;51.72;17.55;;;-1.10;99.90;;;;;;4966076;28;20586;-61
2024/01/19 08:05:30;;;;;;;55.55;15.95;;;-1.10;99.90;;;;;;4971306;28;20038;-62
2024/01/19 08:07:56;;;;;;;44.28;16.05;;;-1.10;99.90;;;;;;4979371;28;20454;-62
2024/01/19 08:10:22;;;;;;;41.13;14.45;;;-1.00;99.90;;;;;;4966405;28;20038;-62
2024/01/19 08:12:47;;;;;;;52.83;17.50;;;-1.00;99.90;;;;;;4963423;28;20038;-62
2024/01/19 08:15:13;;;;;;;44.10;15.43;;;-1.00;99.90;;;;;;4967908;28;20038;-62
2024/01/19 08:17:39;;;;;;;59.80;19.65;;;-1.00;99.90;;;;;;4963400;28;20054;-63
2024/01/19 08:20:05;;;;;;;56.50;18.10;;;-0.90;99.90;;;;;;4972801;28;20035;-61
2024/01/19 08:22:30;;;;;;;39.55;15.40;;;-0.90;99.90;;;;;;4963524;28;20508;-61
2024/01/19 08:24:58;;;;;;;48.42;16.00;;;-0.90;99.90;;;;;;4962403;28;20047;-62
2024/01/19 08:27:24;;;;;;;22.23;9.13;;;-0.90;99.90;;;;;;4969246;28;20134;-63
2024/01/19 08:29:49;;;;;;;56.08;19.45;;;-0.90;99.90;;;;;;4962437;28;20520;-62
2024/01/19 08:32:15;;;;;;;37.50;13.18;;;-0.90;99.90;;;;;;4966667;28;20054;-61
2024/01/19 08:34:43;;;;;;;52.80;22.20;;;-0.80;99.90;;;;;;4958771;28;20043;-62
2024/01/19 08:37:09;;;;;;;59.83;21.88;;;-0.80;99.90;;;;;;4969519;28;20047;-61
2024/01/19 08:39:35;;;;;;;36.58;14.05;;;-0.70;99.90;;;;;;4966504;28;20043;-61
2024/01/19 08:42:00;;;;;;;49.92;19.33;;;-0.70;99.90;;;;;;4967289;28;20043;-61
2024/01/19 08:44:26;;;;;;;53.42;17.63;;;-0.60;99.90;;;;;;4963876;28;20478;-61
2024/01/19 08:46:52;;;;;;;60.75;19.48;;;-0.70;99.90;;;;;;4967548;28;20394;-61
2024/01/19 08:49:17;;;;;;;64.20;26.25;;;-0.60;99.90;;;;;;4977586;28;20031;-62
2024/01/19 08:51:44;;;;;;;51.17;18.55;;;-0.60;99.90;;;;;;4971337;28;20034;-62
2024/01/19 08:54:10;;;;;;;33.60;12.90;;;-0.60;99.90;;;;;;4967525;28;20486;-63
2024/01/19 08:56:36;;;;;;;51.40;17.02;;;-0.60;99.90;;;;;;4966179;28;20106;-63
2024/01/19 08:59:02;;;;;;;54.38;19.30;;;-0.60;99.90;;;;;;4966611;28;20062;-62
2024/01/19 09:01:27;;;;;;;48.72;19.23;;;-0.50;99.90;;;;;;4971360;28;20348;-62
2024/01/19 09:03:53;;;;;;;48.60;18.63;;;-0.50;99.90;;;;;;4971638;28;20034;-63
2024/01/19 09:06:19;;;;;;;38.00;15.55;;;-0.40;99.90;;;;;;4965721;28;20155;-62
2024/01/19 09:08:45;;;;;;;53.33;18.58;;;-0.40;99.90;;;;;;4971630;28;20040;-62
2024/01/19 09:11:11;;;;;;;25.85;11.48;;;-0.40;99.90;;;;;;4970986;28;20038;-62
2024/01/19 09:13:40;;;;;;;45.78;21.45;;;-0.50;99.90;;;;;;4971395;28;20027;-62
2024/01/19 09:16:10;;;;;;;43.67;14.70;;;-0.40;99.90;;;;;;4968320;28;20031;-62
2024/01/19 09:18:39;;;;;;;;;;;-0.40;99.90;;;;;;4969236;28;20058;-62
2024/01/19 09:21:07;;;;;;;50.13;17.80;;;-0.30;99.90;;;;;;4959314;28;20337;-62
2024/01/19 09:23:34;;;;;;;44.58;17.50;;;-0.30;99.90;;;;;;4969408;28;20031;-61
2024/01/19 09:25:59;;;;;;;40.58;14.40;;;-0.30;99.90;;;;;;4960240;28;20121;-62
2024/01/19 09:28:25;;;;;;;42.05;15.40;;;-0.20;99.90;;;;;;4964157;28;20122;-62
2024/01/19 09:30:51;;;;;;;43.15;17.05;;;-0.20;99.90;;;;;;4959937;28;20023;-62
2024/01/19 09:33:17;;;;;;;51.80;19.20;;;-0.10;99.90;;;;;;4965538;28;20031;-62
2024/01/19 09:35:43;;;;;;;44.55;17.30;;;-0.10;99.90;;;;;;4962720;28;20450;-62
2024/01/19 09:38:09;;;;;;;55.40;20.00;;;-0.20;99.90;;;;;;4963958;28;20047;-63
2024/01/19 09:40:35;;;;;;;35.10;13.48;;;-0.10;99.90;;;;;;4960758;28;20491;-63
2024/01/19 09:43:02;;;;;;;42.47;16.23;;;-0.10;99.90;;;;;;4963265;28;20031;-62
2024/01/19 09:48:23;;;;;;;45.90;18.65;;;0.10;99.90;;;;;;5414100;23;20058;-66
2024/01/19 09:50:52;;;;;;;49.42;18.50;;;0.10;99.90;;;;;;4984805;28;20046;-65
2024/01/19 09:53:32;;;;;;;42.55;16.75;;;0.10;99.90;;;;;;4985478;28;20034;-65
2024/01/19 09:55:59;;;;;;;32.00;10.90;;;0.10;99.90;;;;;;4977591;28;20038;-66
2024/01/19 09:58:26;;;;;;;34.28;13.88;;;0.10;99.90;;;;;;4986075;28;20045;-65
2024/01/19 10:00:52;;;;;;;33.47;13.95;;;0.10;99.90;;;;;;4983144;28;20486;-65
2024/01/19 10:03:19;;;;;;;39.05;15.50;;;0.20;99.90;;;;;;4992787;28;20032;-66
2024/01/19 10:05:48;;;;;;;40.60;17.35;;;0.30;99.90;;;;;;4984694;28;20085;-66
2024/01/19 10:08:14;;;;;;;32.25;13.98;;;0.30;99.90;;;;;;4984789;28;20089;-66
2024/01/19 10:10:44;;;;;;;38.50;15.10;;;0.30;99.90;;;;;;4976999;28;20037;-66
2024/01/19 10:13:10;;;;;;;42.10;16.10;;;0.40;99.90;;;;;;4986822;28;20034;-67
2024/01/19 10:15:36;;;;;;;39.72;16.50;;;0.40;99.90;;;;;;4981133;28;20053;-66
2024/01/19 10:18:05;;;;;;;40.90;16.20;;;0.40;99.90;;;;;;4984100;28;20453;-66
2024/01/19 10:20:31;;;;;;;41.13;15.63;;;0.30;99.90;;;;;;4987906;28;20362;-66
2024/01/19 10:22:56;;;;;;;34.80;14.18;;;0.30;99.90;;;;;;4987552;28;20029;-66
2024/01/19 10:25:22;;;;;;;34.50;12.73;;;0.40;99.90;;;;;;4981456;28;20058;-66
2024/01/19 10:27:52;;;;;;;43.42;16.35;;;0.40;99.90;;;;;;4984430;28;21119;-66
2024/01/19 10:30:20;;;;;;;37.72;15.23;;;0.40;99.90;;;;;;4987054;28;20027;-66
2024/01/19 10:32:48;;;;;;;28.15;12.10;;;0.50;99.90;;;;;;4986958;28;20052;-66
2024/01/19 10:35:22;;;;;;;31.90;11.65;;;0.50;99.90;;;;;;4977724;28;20050;-67
2024/01/19 10:37:49;;;;;;;30.83;14.02;;;0.50;99.90;;;;;;4987650;28;20165;-67
2024/01/19 10:40:17;;;;;;;41.00;15.73;;;0.50;99.90;;;;;;4985326;28;20031;-67
2024/01/19 10:42:45;;;;;;;39.03;14.35;;;0.50;99.90;;;;;;4982310;28;20026;-67
2024/01/19 10:45:22;;;;;;;37.88;13.40;;;0.60;99.90;;;;;;4984896;28;20114;-67
2024/01/19 10:47:54;;;;;;;29.30;11.25;;;0.70;99.90;;;;;;4994592;28;20026;-67
2024/01/19 10:50:21;;;;;;;33.92;12.98;;;0.60;99.90;;;;;;4987850;28;20042;-67
2024/01/19 10:52:53;;;;;;;33.70;12.95;;;0.70;99.90;;;;;;4989931;28;20398;-66
2024/01/19 10:55:30;;;;;;;31.50;12.30;;;0.70;99.90;;;;;;4985091;28;20081;-66
2024/01/19 10:58:05;;;;;;;35.75;12.98;;;0.80;99.90;;;;;;4991402;28;20521;-67
2024/01/19 11:00:31;;;;;;;28.27;12.40;;;1.10;99.90;;;;;;4986725;28;20066;-67
2024/01/19 11:03:02;;;;;;;26.00;12.27;;;1.20;99.90;;;;;;4982650;28;20041;-66
2024/01/19 11:05:28;;;;;;;34.67;13.57;;;1.30;99.90;;;;;;4983190;28;20159;-67
2024/01/19 11:08:02;;;;;;;34.10;12.27;;;1.10;99.90;;;;;;4992366;28;20458;-66
2024/01/19 11:10:30;;;;;;;32.30;12.10;;;1.00;99.90;;;;;;4982767;28;20419;-67
2024/01/19 11:13:00;;;;;;;28.40;10.88;;;0.80;99.90;;;;;;4983157;28;20030;-66
2024/01/19 11:15:26;;;;;;;31.02;11.68;;;0.80;99.90;;;;;;4989100;28;20495;-66
2024/01/19 11:17:53;;;;;;;33.45;13.85;;;1.20;99.90;;;;;;4990481;28;20117;-66
2024/01/19 11:20:22;;;;;;;23.23;10.13;;;2.00;99.90;;;;;;4985391;28;20092;-66
2024/01/19 11:22:48;;;;;;;26.40;10.68;;;2.90;99.90;;;;;;4987457;28;20109;-66
2024/01/19 11:25:18;;;;;;;22.95;9.50;;;3.20;99.90;;;;;;4988572;28;20419;-67
2024/01/19 11:27:52;;;;;;;30.83;10.30;;;3.50;99.90;;;;;;4996119;28;20028;-66
2024/01/19 11:30:31;;;;;;;28.95;12.20;;;3.40;99.90;;;;;;4984960;28;20026;-66
2024/01/19 11:33:15;;;;;;;18.83;8.75;;;4.10;99.90;;;;;;4986436;28;20153;-66
2024/01/19 11:35:41;;;;;;;28.33;11.48;;;4.70;99.90;;;;;;4989421;28;20048;-67
2024/01/19 11:38:06;;;;;;;26.90;12.25;;;4.90;99.90;;;;;;4976741;28;20038;-64
2024/01/19 11:40:34;;;;;;;30.38;9.10;;;5.40;99.90;;;;;;4986026;28;20046;-66
2024/01/19 11:43:00;;;;;;;27.77;10.95;;;5.40;99.90;;;;;;4989829;28;20081;-66
2024/01/19 11:45:40;;;;;;;24.73;10.15;;;5.00;99.90;;;;;;4989906;28;20030;-66
2024/01/19 11:48:07;;;;;;;28.77;10.68;;;3.90;99.90;;;;;;4986787;28;20097;-66
2024/01/19 11:50:44;;;;;;;32.60;11.95;;;3.80;99.90;;;;;;4987640;28;20108;-66
2024/01/19 11:53:10;;;;;;;13.88;6.95;;;3.30;99.90;;;;;;4995402;28;20330;-66
2024/01/19 11:55:38;;;;;;;28.00;10.52;;;3.30;99.90;;;;;;4989792;28;20045;-66
2024/01/19 11:58:28;;;;;;;20.08;7.85;;;3.40;99.90;;;;;;4995992;28;20026;-66
2024/01/19 12:00:56;;;;;;;29.23;10.43;;;3.40;99.90;;;;;;4984578;28;20030;-66
2024/01/19 12:03:22;;;;;;;26.17;10.75;;;4.00;99.90;;;;;;4980274;28;20043;-66
2024/01/19 12:05:49;;;;;;;30.02;9.32;;;4.10;99.90;;;;;;4985078;28;20033;-66
2024/01/19 12:08:15;;;;;;;25.52;11.65;;;3.40;99.90;;;;;;4988436;28;20019;-67
2024/01/19 12:10:43;;;;;;;19.20;8.93;;;2.70;99.90;;;;;;4984297;28;20115;-68
2024/01/19 12:13:08;;;;;;;28.38;10.88;;;2.10;99.90;;;;;;4985141;28;20126;-67
2024/01/19 12:15:34;;;;;;;29.42;12.23;;;2.10;99.90;;;;;;4981768;28;20109;-67
2024/01/19 12:18:04;;;;;;;23.00;10.25;;;2.70;99.90;;;;;;4987235;28;20030;-68
2024/01/19 12:20:30;;;;;;;22.98;6.97;;;4.00;99.90;;;;;;4987372;28;20026;-68
2024/01/19 12:22:57;;;;;;;27.40;9.73;;;4.00;99.90;;;;;;4985899;28;20035;-67
2024/01/19 12:25:24;;;;;;;25.15;8.63;;;4.20;99.90;;;;;;4989635;28;20073;-67
2024/01/19 12:28:00;;;;;;;23.23;10.30;;;4.50;99.90;;;;;;4990216;28;20556;-67
2024/01/19 12:30:32;;;;;;;22.33;9.68;;;4.90;99.90;;;;;;4986489;28;20038;-65
2024/01/19 12:32:58;;;;;;;22.83;11.23;;;5.70;99.90;;;;;;4988805;28;20104;-66